Flight Track Log - Related Links

Times and Time Zones

All times are in EDT time to prevent confusion due to time zone crossing. See the CES2179 flight status page for this flight to view local times or setup timezone preferences in your user account.

Time Position Orientation Groundspeed Altitude Reporting Facility
EDT Latitude Longitude Course Direction KTS MPH feet Rate Location/Type
Mon 10:35:17 PM 31.1319 121.8217 162° South 151 174 800  Level FlightAware ADS-B (ZSSL)
Mon 10:35:33 PM 31.1216 121.8265 150° Southeast 159 183 1,400 2,286 Climbing FlightAware ADS-B (ZSSL)
Mon 10:35:38 PM 31.1186 121.8293 141° Southeast 159 183 1,600 2,400 Climbing FlightAware ADS-B (ZSSL)
Mon 10:35:43 PM 31.1165 121.8317 134° Southeast 159 183 1,800 2,571 Climbing FlightAware ADS-B (ZSSL)
Mon 10:35:52 PM 31.1109 121.8375 142° Southeast 158 182 2,200 2,143 Climbing FlightAware ADS-B (ZSSL)
Mon 10:35:57 PM 31.1075 121.8400 148° Southeast 159 183 2,300 2,100 Climbing FlightAware ADS-B (ZSSL)
Mon 10:36:12 PM 31.0979 121.8458 153° Southeast 158 182 2,900 2,000 Climbing FlightAware ADS-B (ZSSL)
Mon 10:36:27 PM 31.0877 121.8521 151° Southeast 162 186 3,300 1,200 Climbing FlightAware ADS-B (ZSSL)
Mon 10:36:42 PM 31.0776 121.8589 148° Southeast 182 209 3,500 800 Climbing FlightAware ADS-B (ZSSL)
Mon 10:36:57 PM 31.0663 121.8672 147° Southeast 202 232 3,700 600 Climbing FlightAware ADS-B (ZSSL)
Mon 10:37:12 PM 31.0534 121.8767 147° Southeast 227 261 3,800 800 Climbing FlightAware ADS-B (ZSSL)
Mon 10:37:27 PM 31.0394 121.8874 146° Southeast 249 287 4,100 1,355 Climbing FlightAware ADS-B (ZSSL)
Mon 10:37:43 PM 31.0244 121.8989 146° Southeast 268 308 4,500 1,935 Climbing FlightAware ADS-B (ZSSL)
Mon 10:37:58 PM 31.0079 121.9115 146° Southeast 274 315 5,100 2,483 Climbing FlightAware ADS-B (ZSSL)
Mon 10:38:12 PM 30.9923 121.9234 146° Southeast 277 319 5,700 1,800 Climbing FlightAware ADS-B (ZSSL)
Mon 10:38:28 PM 30.9758 121.9359 146° Southeast 276 318 6,000 960 Climbing FlightAware ADS-B (ZSSL)
Mon 10:38:37 PM 30.9667 121.9442 137° Southeast 276 318 6,100 429 Climbing FlightAware ADS-B (ZSSL)
Mon 10:38:42 PM 30.9618 121.9507 129° Southeast 275 316 6,100  Level FlightAware ADS-B (ZSSL)
Mon 10:38:47 PM 30.9588 121.9561 121° Southeast 274 315 6,100  Level FlightAware ADS-B (ZSSL)
Mon 10:38:53 PM 30.9556 121.9644 110° East 273 314 6,100  Level FlightAware ADS-B (ZSSL)
Mon 10:38:57 PM 30.9544 121.9693 103° East 273 314 6,100  Level FlightAware ADS-B (ZSSL)
Mon 10:39:02 PM 30.9536 121.9775 93° East 272 313 6,100 600 Level FlightAware ADS-B (ZSSL)
Mon 10:39:07 PM 30.9539 121.9845 86° East 272 313 6,200 1,800 Climbing FlightAware ADS-B (ZSSL)
Mon 10:39:22 PM 30.9579 122.0061 77° East 274 315 6,700 2,000 Climbing FlightAware ADS-B (ZSSL)
Mon 10:39:37 PM 30.9627 122.0271 68° East 279 321 7,200 2,100 Climbing FlightAware ADS-B (ZSSL)
Mon 10:39:42 PM 30.9663 122.0355 61° Northeast 281 323 7,400 2,182 Climbing FlightAware ADS-B (ZSSL)
Mon 10:39:48 PM 30.9695 122.0407 53° Northeast 283 326 7,600 2,182 Climbing FlightAware ADS-B (ZSSL)
Mon 10:39:53 PM 30.9744 122.0467 45° Northeast 284 327 7,800 2,667 Climbing FlightAware ADS-B (ZSSL)
Mon 10:39:57 PM 30.9799 122.0514 34° Northeast 285 328 8,000 3,000 Climbing FlightAware ADS-B (ZSSL)
Mon 10:40:03 PM 30.9846 122.0543 24° Northeast 285 328 8,300 2,800 Climbing FlightAware ADS-B (ZSSL)
Mon 10:40:12 PM 30.9982 122.0588 10° North 286 329 8,700 2,571 Climbing FlightAware ADS-B (ZSSL)
Mon 10:40:17 PM 31.0049 122.0591 North 288 331 8,900 2,400 Climbing FlightAware ADS-B (ZSSL)
Mon 10:40:22 PM 31.0118 122.0585 356° North 289 333 9,100 2,000 Climbing FlightAware ADS-B (ZSSL)
Mon 10:40:38 PM 31.0315 122.0561 354° North 293 337 9,600 1,800 Climbing FlightAware ADS-B (ZSSL)
Mon 10:41:12 PM 31.0806 122.0496 354° North 312 359 10,600 1,406 Climbing FlightAware ADS-B (ZSSL)
Mon 10:41:42 PM 31.1266 122.0435 354° North 344 396 11,100 900 Climbing FlightAware ADS-B (ZSSL)
Mon 10:42:12 PM 31.1750 122.0371 354° North 371 427 11,500 1,279 Climbing FlightAware ADS-B (ZSSL)
Mon 10:42:43 PM 31.2264 122.0303 354° North 379 436 12,400 1,967 Climbing FlightAware ADS-B (ZSSL)
Mon 10:43:13 PM 31.2800 122.0231 354° North 381 438 13,500 2,200 Climbing FlightAware ADS-B (ZSSL)
Mon 10:43:43 PM 31.3327 122.0161 354° North 379 436 14,600 2,542 Climbing FlightAware ADS-B (ZSSL)
Mon 10:44:12 PM 31.3839 122.0092 354° North 367 422 16,000 2,694 Climbing FlightAware ADS-B (ZSSL)
Mon 10:44:32 PM 31.4163 122.0079 North 360 414 16,800 2,516 Climbing FlightAware ADS-B (ZSSL)
Mon 10:44:43 PM 31.4342 122.0131 19° North 354 407 17,300 2,400 Climbing FlightAware ADS-B (ZSSL)
Mon 10:44:52 PM 31.4496 122.0228 31° Northeast 354 407 17,600 1,263 Climbing FlightAware ADS-B (ZSSL)
Mon 10:45:02 PM 31.4603 122.0338 46° Northeast 358 412 17,700 600 Climbing FlightAware ADS-B (ZSSL)
Mon 10:45:12 PM 31.4712 122.0519 58° Northeast 368 423 17,800  Climbing FlightAware ADS-B (ZSSL)
Mon 10:45:47 PM 31.5016 122.1149 60° Northeast 398 458 17,700 -91 Descending FlightAware ADS-B (ZSSL)
Mon 10:46:18 PM 31.5291 122.1717 60° Northeast 402 463 17,700 185 Level FlightAware ADS-B (ZSSL)
Mon 10:46:52 PM 31.5612 122.2379 60° Northeast 402 463 17,900 656 Climbing FlightAware ADS-B (ZSSL)
Mon 10:47:22 PM 31.5891 122.2944 57° Northeast 406 467 18,400 787 Climbing FlightAware ADS-B (ZSSL)
Mon 10:47:53 PM 31.6329 122.3373 48° Northeast 408 470 18,700 277 Climbing FlightAware ADS-B (ZSSL)
Mon 11:21:00 PM 35.4298 120.6536 11° North 427 491 27,700 253 Climbing FlightAware ADS-B (ZSQD / TAO)
Mon 11:21:31 PM 35.4882 120.6683 11° North 424 488 27,200 -885 Descending FlightAware ADS-B (ZSQD / TAO)
Mon 11:22:01 PM 35.5471 120.6832 11° North 419 482 26,800 -456 Descending FlightAware ADS-B (ZSQD / TAO)
Mon 11:22:50 PM 35.6418 120.7071 11° North 421 484 26,600 -150 Descending FlightAware ADS-B (ZSQD / TAO)
Mon 11:23:21 PM 35.6967 120.7212 11° North 420 483 26,600  Level FlightAware ADS-B (ZSQD / TAO)
Mon 11:23:51 PM 35.7555 120.7361 11° North 421 484 26,600  Level FlightAware ADS-B (ZSQD / TAO)
Mon 11:24:20 PM 35.8124 120.7506 11° North 420 483 26,600  Level FlightAware ADS-B (ZSQD / TAO)
Mon 11:24:50 PM 35.8688 120.7651 11° North 420 483 26,600  Level FlightAware ADS-B (ZSQD / TAO)
Mon 11:25:20 PM 35.9264 120.7798 11° North 419 482 26,600  Level FlightAware ADS-B (ZSQD / TAO)
Mon 11:26:11 PM 36.0185 120.8034 11° North 392 451 26,600  Level FlightAware ADS-B (ZSQD / TAO)
Mon 11:26:41 PM 36.0718 120.8171 11° North 389 448 26,600  Level FlightAware ADS-B (ZSQD / TAO)
Mon 11:27:10 PM 36.1248 120.8307 11° North 392 451 26,600  Level FlightAware ADS-B (ZSQD / TAO)
Mon 11:27:40 PM 36.1794 120.8447 11° North 394 453 26,600 -300 Level FlightAware ADS-B (ZSQD / TAO)
Mon 11:28:10 PM 36.2307 120.8580 11° North 391 450 26,300 -1,200 Descending FlightAware ADS-B (ZSQD / TAO)
Mon 11:28:40 PM 36.2845 120.8719 11° North 388 447 25,400 -1,672 Descending FlightAware ADS-B (ZSQD / TAO)
Mon 11:29:11 PM 36.3376 120.8857 11° North 382 440 24,600 -1,672 Descending FlightAware ADS-B (ZSQD / TAO)
Mon 11:29:41 PM 36.3889 120.8989 11° North 376 433 23,700 -1,600 Descending FlightAware ADS-B (ZSQD / TAO)
Mon 11:30:11 PM 36.4390 120.9119 11° North 367 422 23,000 -1,627 Descending FlightAware ADS-B (ZSQD / TAO)
Mon 11:30:40 PM 36.4884 120.9247 11° North 365 420 22,100 -1,729 Descending FlightAware ADS-B (ZSQD / TAO)
Mon 11:31:10 PM 36.5383 120.9377 12° North 361 415 21,300 -2,100 Descending FlightAware ADS-B (ZSQD / TAO)
Mon 11:31:40 PM 36.5881 120.9507 11° North 371 427 20,000 -1,700 Descending FlightAware ADS-B (ZSQD / TAO)
Mon 11:32:10 PM 36.6374 120.9634 12° North 355 409 19,600 -1,180 Descending FlightAware ADS-B (ZSQD / TAO)
Mon 11:32:41 PM 36.6853 120.9760 11° North 348 400 18,800 -1,600 Descending FlightAware ADS-B (ZSQD / TAO)
Mon 11:33:10 PM 36.7323 120.9883 12° North 345 397 18,000 -1,424 Descending FlightAware ADS-B (ZSQD / TAO)
Mon 11:33:40 PM 36.7785 121.0004 11° North 338 389 17,400 -1,300 Descending FlightAware ADS-B (ZSQD / TAO)
Mon 11:34:10 PM 36.8234 121.0122 11° North 333 383 16,700 -1,967 Descending FlightAware ADS-B (ZSQD / TAO)
Mon 11:34:41 PM 36.8692 121.0241 11° North 346 398 15,400 -2,483 Descending FlightAware ADS-B (ZSQD / TAO)
Mon 11:35:08 PM 36.9147 121.0360 11° North 353 406 14,300 -1,932 Descending FlightAware ADS-B (ZSQD / TAO)
Mon 11:35:40 PM 36.9664 121.0497 11° North 348 400 13,500 -1,429 Descending FlightAware ADS-B (ZSQD / TAO)
Mon 11:36:11 PM 37.0121 121.0618 11° North 338 389 12,800 -592 Descending FlightAware ADS-B (ZSQD / TAO)
Mon 11:36:51 PM 37.0700 121.0772 11° North 299 344 12,800  Level FlightAware ADS-B (ZSQD / TAO)
Mon 11:37:20 PM 37.1076 121.0870 11° North 285 328 12,800  Level FlightAware ADS-B (ZSQD / TAO)
Mon 11:37:51 PM 37.1473 121.0975 11° North 282 325 12,800  Level FlightAware ADS-B (ZSQD / TAO)
Mon 11:38:21 PM 37.1856 121.1076 11° North 272 313 12,800  Level FlightAware ADS-B (ZSQD / TAO)
Mon 11:38:51 PM 37.2225 121.1173 11° North 271 312 12,800 -102 Level FlightAware ADS-B (ZSQD / TAO)
Mon 11:39:20 PM 37.2578 121.1267 12° North 268 308 12,700 -1,322 Descending FlightAware ADS-B (ZSQD / TAO)
Mon 11:39:50 PM 37.2964 121.1369 12° North 288 331 11,500 -2,400 Descending FlightAware ADS-B (ZSQD / TAO)
Mon 11:40:20 PM 37.3369 121.1476 11° North 304 350 10,300 -2,133 Descending FlightAware ADS-B (ZSQD / TAO)
Mon 11:40:35 PM 37.3569 121.1530 12° North 305 351 9,900 -1,714 Descending FlightAware ADS-B (ZSQD / TAO)
Mon 11:40:55 PM 37.3852 121.1605 12° North 304 350 9,300 -1,714 Descending FlightAware ADS-B (ZSQD / TAO)
Mon 11:41:10 PM 37.4031 121.1653 11° North 298 343 8,900 -2,057 Descending FlightAware ADS-B (ZSQD / TAO)
Mon 11:41:30 PM 37.4260 121.1714 15° North 298 343 8,100 -1,415 Descending FlightAware ADS-B (ZSQD / TAO)
Mon 11:42:56 PM 37.4992 121.2919 60° Northeast 280 322 6,400 -1,174 Descending FlightAware ADS-B (ZSQD / TAO)
Mon 11:43:02 PM 37.5025 121.2992 61° Northeast 276 318 6,300 -1,000 Descending FlightAware ADS-B (ZSQD / TAO)
Mon 11:45:00 PM 37.4017 121.3717 150° Southeast  Level Estimated
Mon 11:46:00 PM 37.4017 121.3717 North  Level Estimated
Mon 11:47:00 PM 37.4017 121.3717 North  Level Estimated
Mon 11:48:00 PM 37.4017 121.3717 North  Level Estimated
Mon 11:49:00 PM 37.4017 121.3717 North  Level Estimated
Mon 11:50:00 PM 37.4017 121.3717 North  Level Estimated
Mon 11:51:00 PM 37.4017 121.3717 North  Level Estimated
Mon 11:52:00 PM 37.4017 121.3717 North  Level Estimated
Mon 11:53:00 PM 37.4017 121.3717 North  Level Estimated
Mon 11:54:00 PM 37.4017 121.3717 North  Level Estimated
Mon 11:55:00 PM 37.4017 121.3717 North  Level Estimated
Mon 11:56:00 PM 37.4017 121.3717 North  Level Estimated
Mon 11:57:00 PM 37.4017 121.3717 North  Level Estimated

Login

Don't have an account? Register now (free) for customized features, flight alerts, and more!